Date,TemperatureHighF,TemperatureAvgF,TemperatureLowF,DewpointHighF,DewpointAvgF,DewpointLowF,HumidityHigh,HumidityAvg,HumidityLow,PressureMaxIn,PressureMinIn,WindSpeedMaxMPH,WindSpeedAvgMPH,GustSpeedMaxMPH,PrecipitationSumIn
2013-1-1,60.0,45.8,35.0,41.0,33.1,22.0,94,65,28,0.00,40.00,7,3,11,0.00
2013-1-2,64.0,49.1,34.0,29.0,22.4,12.0,76,39,14,0.00,40.00,8,4,14,0.00
2013-1-3,71.0,45.1,32.0,47.0,28.6,9.0,79,58,9,0.00,40.00,9,5,18,0.00
2013-1-4,65.0,45.3,30.0,26.0,20.7,10.0,73,45,12,0.00,40.00,8,5,12,0.00
2013-1-5,63.0,43.9,29.0,42.0,29.0,21.0,81,60,21,0.00,40.00,8,5,13,0.00
2013-1-6,55.0,46.6,36.0,49.0,41.7,32.0,95,84,59,0.00,40.00,11,3,18,0.00
2013-1-7,68.0,48.3,37.0,44.0,35.0,19.0,97,68,16,0.00,40.00,14,5,23,0.00
2013-1-8,69.0,48.3,35.0,45.0,36.4,30.0,90,68,24,0.00,40.00,6,4,10,0.00
2013-1-9,67.0,50.2,39.0,52.0,42.4,35.0,96,78,34,0.00,40.00,7,4,10,0.00
2013-1-10,55.0,50.6,41.0,50.0,39.0,20.0,94,67,32,0.00,40.00,15,6,28,0.00
2013-1-11,53.0,39.4,27.0,29.0,25.3,19.0,91,62,26,0.00,40.00,11,5,19,0.00
2013-1-12,54.0,38.1,25.0,28.0,23.9,16.0,88,63,23,0.00,40.00,8,5,14,0.00
2013-1-13,54.0,38.9,28.0,27.0,22.6,15.0,87,58,22,0.00,40.00,8,4,14,0.00
2013-1-14,56.0,41.3,28.0,24.0,5.5,-6.0,80,29,8,0.00,40.00,13,5,23,0.00
2013-1-15,60.0,41.1,27.0,26.0,17.6,9.0,66,42,16,0.00,40.00,8,5,14,0.00
2013-1-16,65.0,47.6,31.0,35.0,27.3,16.0,76,50,22,0.00,40.00,8,4,11,0.00
2013-1-17,79.0,62.3,43.0,26.0,17.1,11.0,41,20,8,0.00,40.00,12,5,21,0.00
2013-1-18,79.0,56.8,41.0,29.0,22.2,17.0,48,30,10,0.00,40.00,8,4,14,0.00
2013-1-19,77.0,54.8,37.0,30.0,23.4,18.0,58,34,12,0.00,40.00,7,4,11,0.00
2013-1-20,78.0,54.4,37.0,25.0,20.5,16.0,52,32,10,0.00,40.00,8,5,11,0.00
2013-1-21,76.0,53.4,35.0,32.0,19.7,10.0,51,30,8,0.00,40.00,8,5,12,0.00
2013-1-22,80.0,53.9,36.0,25.0,17.8,11.0,46,28,8,0.00,40.00,8,5,11,0.00
2013-1-23,79.0,61.3,45.0,40.0,30.2,21.0,49,33,15,0.00,40.00,9,4,15,0.00
2013-1-24,69.0,58.8,52.0,56.0,50.7,39.0,93,76,50,0.00,40.00,8,3,13,0.00
2013-1-25,65.0,59.8,57.0,60.0,57.5,55.0,96,92,83,0.00,40.00,8,2,15,0.00
2013-1-26,65.0,58.5,55.0,60.0,57.0,54.0,96,95,82,0.00,40.00,9,3,14,0.00
2013-1-27,56.0,51.8,41.0,54.0,47.8,39.0,97,87,61,0.00,40.00,10,4,16,0.00
2013-1-28,57.0,44.9,35.0,42.0,35.7,29.0,97,75,36,0.00,40.00,11,4,20,0.00
2013-1-29,57.0,43.5,32.0,41.0,35.5,30.0,96,76,43,0.00,40.00,8,4,14,0.00
2013-1-30,68.0,50.0,36.0,45.0,38.4,35.0,96,70,29,0.00,40.00,6,4,16,0.00
2013-1-31,74.0,58.4,38.0,46.0,41.0,36.0,92,57,29,0.00,40.00,8,4,11,0.00
2013-2-1,73.0,54.8,41.0,48.0,40.4,37.0,86,62,28,0.00,40.00,7,4,10,0.00
2013-2-2,73.0,59.0,47.0,50.0,45.2,38.0,82,62,31,0.00,40.00,6,3,11,0.00
2013-2-3,70.0,58.5,44.0,50.0,46.0,40.0,89,65,38,0.00,40.00,8,4,12,0.00
2013-2-4,62.0,50.5,40.0,52.0,46.2,38.0,97,86,59,0.00,40.00,7,4,12,0.00
2013-2-5,55.0,50.7,46.0,51.0,48.0,45.0,97,90,81,0.00,40.00,6,2,11,0.00
2013-2-6,60.0,52.1,39.0,48.0,44.8,37.0,94,77,55,0.00,40.00,8,3,13,0.00
2013-2-7,60.0,48.0,36.0,49.0,42.7,35.0,97,83,66,0.00,40.00,9,4,14,0.00
2013-2-8,52.0,46.2,39.0,46.0,41.0,36.0,95,83,64,0.00,40.00,10,4,25,0.00
2013-2-9,55.0,42.2,32.0,43.0,35.6,31.0,98,81,43,0.00,40.00,8,4,15,0.00
2013-2-10,54.0,43.4,32.0,45.0,38.4,31.0,97,84,54,0.00,40.00,7,4,12,0.00
2013-2-11,58.0,43.8,32.0,48.0,37.3,31.0,97,80,45,0.00,40.00,10,5,19,0.00
2013-2-12,60.0,44.3,30.0,45.0,35.1,28.0,94,73,38,0.00,40.00,9,5,14,0.00
2013-2-13,63.0,45.9,31.0,47.0,37.0,29.0,92,74,34,0.00,40.00,8,4,13,0.00
2013-2-14,71.0,49.9,34.0,49.0,40.1,32.0,95,73,34,0.00,40.00,8,4,12,0.00
2013-2-15,81.0,60.2,41.0,39.0,26.2,14.0,89,34,8,0.00,40.00,12,5,23,0.00
2013-2-16,80.0,61.1,42.0,28.0,20.5,11.0,51,25,9,0.00,40.00,11,5,16,0.00
2013-2-17,63.0,47.9,35.0,50.0,37.5,24.0,93,68,44,0.00,40.00,12,5,18,0.00
2013-2-18,59.0,50.5,39.0,46.0,43.3,37.0,94,77,56,0.00,40.00,8,4,16,0.00
2013-2-19,52.0,49.8,46.0,48.0,42.5,38.0,93,76,64,0.00,40.00,10,4,19,0.00
2013-2-20,56.0,46.7,36.0,43.0,35.1,27.0,93,66,37,0.00,40.00,11,6,22,0.00
2013-2-21,57.0,44.8,36.0,47.0,39.6,34.0,96,84,54,0.00,40.00,9,4,15,0.00
2013-2-22,60.0,45.2,32.0,46.0,38.4,31.0,97,80,54,0.00,40.00,8,4,13,0.00
2013-2-23,60.0,45.8,33.0,47.0,37.5,31.0,94,76,40,0.00,40.00,8,5,14,0.00
2013-2-24,67.0,49.9,35.0,38.0,23.3,1.0,95,51,7,0.00,40.00,13,6,28,0.00
2013-2-25,66.0,46.4,30.0,36.0,22.6,8.0,75,45,11,0.00,40.00,11,5,17,0.00
2013-2-26,64.0,46.3,30.0,46.0,33.3,25.0,90,64,26,0.00,40.00,7,4,12,0.00
2013-2-27,69.0,52.0,36.0,35.0,23.7,14.0,68,38,12,0.00,40.00,9,5,15,0.00
2013-2-28,77.0,55.2,37.0,28.0,20.6,8.0,50,30,8,0.00,40.00,11,5,17,0.00
2013-3-1,84.0,62.1,42.0,29.0,22.6,15.0,50,27,8,26.44,25.72,10,6,20,0.00
2013-3-2,82.0,60.8,44.0,32.0,26.2,21.0,54,31,11,26.14,25.69,9,5,14,0.00
2013-3-3,70.0,54.6,41.0,52.0,39.6,27.0,92,60,23,26.37,25.75,10,4,16,0.00
2013-3-4,64.0,53.8,42.0,51.0,47.3,40.0,94,80,59,26.34,26.17,9,4,15,0.00
2013-3-5,60.0,53.8,51.0,51.0,48.9,46.0,90,83,71,26.34,26.23,8,3,13,0.00
2013-3-6,60.0,52.4,45.0,49.0,44.1,40.0,95,75,50,26.37,26.05,10,4,17,0.00
2013-3-7,57.0,51.3,44.0,51.0,46.4,42.0,95,84,60,26.40,26.08,7,3,10,0.00
2013-3-8,54.0,50.0,45.0,48.0,43.1,38.0,94,78,58,26.34,25.99,11,4,21,0.00
2013-3-9,58.0,50.8,40.0,48.0,43.9,38.0,95,79,57,26.37,26.08,10,4,17,0.00
2013-3-10,70.0,51.2,38.0,50.0,39.3,28.0,96,69,24,26.28,25.90,10,5,18,0.00
2013-3-11,71.0,52.0,36.0,51.0,38.2,32.0,89,65,27,26.31,25.90,9,5,13,0.00
2013-3-12,72.0,54.2,39.0,53.0,44.4,37.0,94,73,44,26.37,26.02,8,4,13,0.00
2013-3-13,77.0,56.2,43.0,54.0,46.4,39.0,95,73,34,26.40,26.14,7,4,10,0.00
2013-3-14,75.0,56.5,42.0,55.0,48.3,40.0,96,78,43,26.40,40.00,9,4,14,0.00
2013-3-15,70.0,53.7,42.0,55.0,49.3,41.0,97,87,54,0.00,40.00,9,4,13,0.00
2013-3-16,62.0,52.8,47.0,51.0,48.6,46.0,97,87,65,0.00,40.00,10,4,14,0.00
2013-3-17,63.0,55.7,51.0,51.0,49.7,48.0,93,81,61,0.00,40.00,8,4,14,0.00
2013-3-18,62.0,56.1,48.0,51.0,48.9,43.0,88,77,62,0.00,40.00,8,3,14,0.00
2013-3-19,64.0,54.4,43.0,52.0,48.5,41.0,93,81,63,0.00,40.00,9,4,14,0.00
2013-3-20,68.0,56.1,46.0,53.0,49.0,45.0,95,79,53,0.00,40.00,10,4,14,0.00
2013-3-21,67.0,54.8,45.0,54.0,47.5,43.0,94,78,50,0.00,40.00,9,4,14,0.00
2013-3-22,63.0,55.7,44.0,52.0,48.9,41.0,93,79,64,0.00,40.00,9,4,15,0.00
2013-3-23,66.0,52.6,40.0,52.0,46.5,39.0,96,81,59,0.00,40.00,8,4,14,0.00
2013-3-24,71.0,54.3,40.0,53.0,46.7,39.0,96,78,34,0.00,40.00,9,4,14,0.00
2013-3-25,72.0,55.0,41.0,54.0,48.0,40.0,96,79,47,0.00,40.00,9,4,13,0.00
2013-3-26,65.0,54.5,47.0,54.0,49.5,45.0,97,85,58,0.00,40.00,9,4,14,0.00
2013-3-27,64.0,56.1,49.0,52.0,49.1,46.0,89,78,59,0.00,40.00,9,4,14,0.00
2013-3-28,69.0,58.4,50.0,55.0,50.9,48.0,94,78,54,0.00,40.00,10,4,14,0.00
2013-3-29,66.0,58.1,53.0,55.0,53.3,51.0,94,85,63,0.00,40.00,9,4,15,0.00
2013-3-30,67.0,57.9,47.0,55.0,51.3,-99.9,92,82,62,0.00,40.00,10,4,16,0.00
2013-3-31,67.0,57.6,46.0,55.0,51.5,44.0,95,81,58,0.00,40.00,10,5,18,0.00
2013-4-1,65.0,57.6,48.0,53.0,49.6,45.0,93,76,51,0.00,40.00,13,5,21,0.00
2013-4-2,64.0,55.1,46.0,53.0,48.9,44.0,93,81,60,0.00,40.00,9,4,16,0.00
2013-4-3,70.0,55.9,43.0,55.0,50.5,41.0,95,83,56,0.00,40.00,12,4,17,0.00
2013-4-4,69.0,59.1,50.0,54.0,52.5,46.0,95,80,58,0.00,40.00,10,4,18,0.00
2013-4-5,65.0,57.1,47.0,56.0,52.7,45.0,95,86,69,0.00,40.00,9,4,15,0.00
2013-4-6,66.0,59.0,49.0,54.0,51.9,45.0,90,78,63,0.00,40.00,9,4,14,0.00
2013-4-7,68.0,54.8,42.0,54.0,48.6,41.0,96,81,56,0.00,40.00,10,4,15,0.00
2013-4-8,61.0,56.6,46.0,54.0,46.7,39.0,92,71,45,0.00,40.00,13,6,27,0.00
2013-4-9,69.0,53.1,37.0,47.0,35.2,19.0,95,58,15,0.00,40.00,12,5,21,0.00
2013-4-10,75.0,56.7,40.0,48.0,34.3,21.0,62,46,14,0.00,40.00,10,5,17,0.00
2013-4-11,70.0,55.5,41.0,53.0,42.3,27.0,83,63,21,0.00,40.00,14,7,20,0.00
2013-4-12,66.0,58.7,54.0,53.0,50.8,48.0,89,76,58,0.00,40.00,10,4,15,0.00
2013-4-13,59.0,56.7,55.0,54.0,52.5,48.0,90,86,81,0.00,40.00,7,4,11,0.00
2013-4-14,59.0,55.4,53.0,52.0,49.5,48.0,89,80,72,0.00,40.00,9,4,15,0.00
2013-4-15,60.0,56.3,54.0,52.0,49.7,45.0,89,79,68,0.00,40.00,11,5,18,0.00
2013-4-16,59.0,53.0,41.0,47.0,40.5,34.0,83,63,40,0.00,40.00,11,5,18,0.00
2013-4-17,68.0,52.8,34.0,37.0,26.4,16.0,91,46,15,0.00,40.00,16,6,26,0.00
2013-4-18,75.0,60.1,36.0,25.0,15.6,7.0,50,21,8,0.00,40.00,15,8,22,0.00
2013-4-19,81.0,61.8,39.0,25.0,16.5,8.0,40,21,7,0.00,40.00,11,6,16,0.00
2013-4-20,80.0,60.2,40.0,51.0,33.7,17.0,70,41,14,0.00,40.00,9,5,14,0.00
2013-4-21,74.0,57.0,42.0,55.0,46.0,36.0,91,68,41,0.00,40.00,9,5,14,0.00
2013-4-22,67.0,57.4,47.0,53.0,50.7,45.0,93,79,58,0.00,40.00,10,4,15,0.00
2013-4-23,68.0,58.5,49.0,52.0,49.4,44.0,87,73,53,0.00,40.00,9,4,14,0.00
2013-4-24,61.0,57.2,48.0,55.0,50.2,44.0,94,78,59,0.00,40.00,7,3,12,0.00
2013-4-25,68.0,58.7,48.0,54.0,50.1,44.0,96,75,48,0.00,40.00,10,4,16,0.00
2013-4-26,72.0,57.9,43.0,53.0,47.0,41.0,95,70,44,0.00,40.00,10,5,17,0.00
2013-4-27,69.0,58.3,47.0,57.0,51.9,43.0,97,80,63,0.00,40.00,11,5,16,0.00
2013-4-28,69.0,59.7,54.0,56.0,54.4,50.0,95,84,61,0.00,40.00,8,4,13,0.00
2013-4-29,68.0,60.0,56.0,55.0,54.2,53.0,95,83,60,0.00,40.00,9,4,16,0.00
2013-4-30,65.0,59.7,57.0,54.0,52.7,50.0,88,78,66,0.00,40.00,11,5,19,0.00
2013-5-1,68.0,61.2,52.0,56.0,54.0,48.0,93,78,60,0.00,40.00,9,4,16,0.00
2013-5-2,87.0,65.2,51.0,57.0,51.2,27.0,95,67,12,0.00,40.00,11,4,17,0.00
2013-5-3,89.0,67.7,47.0,56.0,28.6,9.0,75,31,5,0.00,40.00,10,5,14,0.00
2013-5-4,67.0,57.9,43.0,54.0,47.7,32.0,83,69,59,0.00,40.00,12,7,20,0.00
2013-5-5,65.0,60.0,58.0,54.0,51.6,48.0,85,75,55,0.00,40.00,12,5,21,0.00
2013-5-6,64.0,59.8,57.0,57.0,54.8,52.0,95,84,65,0.00,40.00,10,5,16,0.00
2013-5-7,67.0,59.3,52.0,57.0,50.8,43.0,96,76,42,0.00,40.00,11,4,19,0.00
2013-5-8,66.0,59.6,52.0,54.0,50.9,43.0,94,74,51,0.00,40.00,10,4,16,0.00
2013-5-9,67.0,58.5,46.0,54.0,50.5,44.0,94,76,56,0.00,40.00,10,4,17,0.00
2013-5-10,70.0,60.4,51.0,58.0,52.1,-99.9,94,79,63,0.00,40.00,10,5,16,0.00
2013-5-11,79.0,62.8,51.0,60.0,55.4,-99.9,97,81,48,0.00,40.00,9,4,14,0.00
2013-5-12,94.0,71.0,49.0,60.0,53.2,44.0,97,61,18,0.00,40.00,9,4,15,0.00
2013-5-13,95.0,77.1,57.0,54.0,44.9,34.0,65,37,14,0.00,40.00,10,5,18,0.00
2013-5-14,76.0,62.5,50.0,58.0,50.2,40.0,89,65,45,0.00,40.00,10,5,16,0.00
2013-5-15,69.0,60.2,53.0,54.0,52.4,49.0,91,76,58,0.00,40.00,9,5,16,0.00
2013-5-16,67.0,58.7,59.0,56.0,36.8,-99.9,83,74,61,0.00,40.00,10,5,16,0.00
2013-5-17,68.0,63.0,60.0,57.0,50.7,-99.9,85,72,62,0.00,40.00,11,5,18,0.00
2013-5-18,68.0,62.1,53.0,56.0,53.8,49.0,92,75,59,0.00,40.00,10,5,16,0.00
2013-5-19,69.0,60.3,49.0,56.0,52.4,47.0,93,76,59,0.00,40.00,9,5,16,0.00
2013-5-20,75.0,61.9,48.0,59.0,54.1,46.0,95,77,50,0.00,40.00,10,5,15,0.00
2013-5-21,75.0,64.1,56.0,59.0,57.3,53.0,94,80,57,0.00,40.00,9,4,15,0.00
2013-5-22,68.0,63.5,61.0,57.0,54.1,51.0,85,72,58,0.00,40.00,11,5,24,0.00
2013-5-23,66.0,61.2,52.0,54.0,51.3,47.0,86,70,56,0.00,40.00,12,6,21,0.00
2013-5-24,66.0,58.5,48.0,52.0,49.4,44.0,88,73,57,0.00,40.00,10,5,17,0.00
2013-5-25,68.0,57.4,44.0,54.0,49.1,42.0,93,75,53,0.00,40.00,10,5,16,0.00
2013-5-26,66.0,60.7,52.0,54.0,51.6,47.0,86,72,58,0.00,40.00,11,5,17,0.00
2013-5-27,69.0,59.6,45.0,57.0,52.0,43.0,93,77,57,0.00,40.00,11,5,19,0.00
2013-5-28,70.0,63.8,55.0,58.0,55.1,52.0,89,74,59,0.00,40.00,11,4,19,0.00
2013-5-29,73.0,63.6,53.0,60.0,55.8,50.0,92,77,58,0.00,40.00,9,5,15,0.00
2013-5-30,71.0,61.8,49.0,59.0,54.9,47.0,95,80,61,0.00,40.00,10,5,18,0.00
2013-5-31,73.0,64.9,58.0,60.0,57.2,54.0,88,77,59,0.00,40.00,9,5,14,0.00
2013-6-1,73.0,64.7,58.0,61.0,58.7,54.0,93,81,63,0.00,40.00,10,5,15,0.00
2013-6-2,67.0,62.5,61.0,60.0,58.2,56.0,93,86,72,0.00,40.00,10,4,17,0.00
2013-6-3,70.0,63.4,60.0,59.0,56.2,54.0,94,79,60,0.00,40.00,10,5,16,0.00
2013-6-4,69.0,63.7,60.0,58.0,55.6,54.0,87,76,59,0.00,40.00,10,4,16,0.00
2013-6-5,71.0,64.3,54.0,57.0,55.5,50.0,88,74,60,0.00,40.00,11,4,19,0.00
2013-6-6,69.0,61.4,50.0,58.0,55.3,48.0,92,81,65,0.00,40.00,10,4,16,0.00
2013-6-7,69.0,62.7,59.0,58.0,56.9,56.0,91,82,64,0.00,40.00,9,4,14,0.00
2013-6-8,67.0,62.3,60.0,58.0,56.8,55.0,91,83,67,0.00,40.00,9,4,15,0.00
2013-6-9,69.0,62.8,60.0,58.0,56.3,55.0,88,80,65,0.00,40.00,10,4,16,0.00
2013-6-10,71.0,65.9,55.0,57.0,54.1,51.0,87,66,55,0.00,40.00,9,6,15,0.00
2013-6-11,78.0,63.2,49.0,61.0,55.4,47.0,95,78,37,0.00,40.00,10,5,16,0.00
2013-6-12,71.0,63.3,60.0,60.0,58.7,58.0,95,85,66,0.00,40.00,10,4,16,0.00
2013-6-13,71.0,65.1,62.0,59.0,57.6,56.0,87,78,61,0.00,40.00,9,4,15,0.00
2013-6-14,70.0,62.5,54.0,59.0,55.7,51.0,91,79,62,0.00,40.00,10,5,16,0.00
2013-6-15,69.0,62.5,55.0,57.0,54.0,51.0,87,75,56,0.00,40.00,9,4,16,0.00
2013-6-16,70.0,63.6,55.0,59.0,54.9,51.0,90,75,56,0.00,40.00,9,5,15,0.00
2013-6-17,73.0,63.9,54.0,59.0,56.7,51.0,94,79,58,0.00,40.00,9,4,15,0.00
2013-6-18,71.0,62.0,53.0,60.0,56.2,50.0,98,83,61,0.00,40.00,9,5,19,0.00
2013-6-19,72.0,64.8,56.0,60.0,56.1,52.0,89,75,54,0.00,40.00,10,5,15,0.00
2013-6-20,74.0,63.1,49.0,59.0,54.3,47.0,94,75,51,0.00,40.00,9,5,15,0.00
2013-6-21,72.0,70.7,69.0,57.0,56.3,56.0,66,61,58,0.00,40.00,8,6,15,0.00
2013-6-22,73.0,66.3,56.0,58.0,56.2,52.0,89,71,53,0.00,40.00,9,6,15,0.00
2013-6-23,70.0,63.6,58.0,58.0,55.8,53.0,88,77,60,0.00,40.00,10,5,16,0.00
2013-6-24,70.0,64.3,58.0,59.0,56.5,54.0,90,77,61,0.00,40.00,9,4,14,0.00
2013-6-25,79.0,65.2,54.0,62.0,57.7,52.0,93,78,51,0.00,40.00,10,5,15,0.00
2013-6-26,79.0,69.4,58.0,63.0,60.2,54.0,93,74,51,0.00,40.00,9,4,14,0.00
2013-6-27,85.0,69.1,57.0,64.0,60.0,55.0,96,76,42,0.00,40.00,9,4,14,0.00
2013-6-28,85.0,71.0,57.0,64.0,59.8,55.0,96,72,38,0.00,40.00,9,4,15,0.00
2013-6-29,89.0,73.5,59.0,66.0,61.0,56.0,93,68,34,0.00,40.00,8,4,12,0.00
2013-6-30,84.0,70.1,60.0,66.0,61.2,56.0,93,75,44,0.00,40.00,11,4,19,0.00
2013-7-1,88.0,69.1,59.0,66.0,60.6,54.0,92,78,31,0.00,40.00,9,4,14,0.00
2013-7-2,75.0,67.1,58.0,66.0,61.3,56.0,97,82,69,0.00,40.00,9,5,17,0.00
2013-7-3,83.0,68.6,60.0,66.0,62.7,57.0,97,83,53,0.00,40.00,10,4,15,0.00
2013-7-4,77.0,67.7,62.0,63.0,61.1,59.0,94,81,57,0.00,40.00,9,4,14,0.00
2013-7-5,75.0,67.8,63.0,63.0,61.2,59.0,90,80,61,0.00,40.00,10,4,15,0.00
2013-7-6,74.0,67.9,66.0,64.0,62.4,61.0,90,83,66,0.00,40.00,8,4,14,0.00
2013-7-7,77.0,68.6,59.0,64.0,62.1,57.0,92,81,62,0.00,40.00,10,4,16,0.00
2013-7-8,86.0,65.9,57.0,64.0,57.9,-99.9,98,82,43,0.00,40.00,9,4,15,0.00
2013-7-9,80.0,68.1,57.0,64.0,59.4,53.0,91,76,45,0.00,40.00,11,4,16,0.00
2013-7-10,78.0,68.1,64.0,66.0,60.1,-99.9,94,81,60,0.00,40.00,9,3,12,0.00
2013-7-11,76.0,69.5,64.0,67.0,64.6,62.0,94,85,69,0.00,40.00,7,3,12,0.00
2013-7-12,77.0,70.6,65.0,65.0,63.8,63.0,93,80,62,0.00,40.00,9,4,14,0.00
2013-7-13,75.0,69.0,62.0,64.0,62.5,58.0,91,81,63,0.00,40.00,10,4,15,0.00
2013-7-14,80.0,70.5,60.0,65.0,61.8,56.0,93,76,44,0.00,40.00,9,4,14,0.00
2013-7-15,80.0,69.2,59.0,64.0,60.0,51.0,95,75,40,0.00,40.00,9,4,15,0.00
2013-7-16,77.0,65.7,54.0,62.0,56.4,52.0,96,74,46,0.00,40.00,10,5,14,0.00
2013-7-17,86.0,69.8,50.0,59.0,51.2,41.0,94,58,21,0.00,40.00,9,5,15,0.00
2013-7-18,76.0,67.1,50.0,62.0,57.6,46.0,93,73,57,0.00,40.00,9,5,14,0.00
2013-7-19,74.0,65.9,56.0,62.0,59.7,53.0,94,82,64,0.00,40.00,8,5,16,0.00
2013-7-20,72.0,65.3,64.0,62.0,59.3,-99.9,92,84,68,0.00,40.00,8,4,12,0.00
2013-7-21,71.0,66.5,64.0,63.0,62.0,61.0,93,86,73,0.00,40.00,7,3,12,0.00
2013-7-22,76.0,69.2,62.0,63.0,62.0,60.0,92,79,61,0.00,40.00,10,4,15,0.00
2013-7-23,75.0,67.5,60.0,64.0,61.1,57.0,92,81,63,0.00,40.00,10,4,16,0.00
2013-7-24,76.0,66.1,58.0,62.0,59.5,55.0,93,80,61,0.00,40.00,9,4,15,0.00
2013-7-25,74.0,66.5,63.0,62.0,60.9,59.0,94,83,60,0.00,40.00,9,4,14,0.00
2013-7-26,76.0,66.2,64.0,65.0,62.5,61.0,94,89,62,0.00,40.00,7,2,11,0.00
2013-7-27,74.0,65.5,61.0,64.0,61.7,59.0,95,88,68,0.00,40.00,9,4,15,0.00
2013-7-28,71.0,64.4,61.0,62.0,59.9,58.0,96,86,66,0.00,40.00,9,4,15,0.00
2013-7-29,71.0,64.7,57.0,59.0,56.7,53.0,88,76,60,0.00,40.00,9,4,15,0.00
2013-7-30,72.0,62.4,54.0,58.0,55.7,51.0,92,80,59,0.00,40.00,10,4,15,0.00
2013-7-31,71.0,61.9,51.0,59.0,55.3,49.0,94,80,61,0.00,40.00,9,4,15,0.00
2013-8-1,72.0,65.7,61.0,60.0,57.8,55.0,90,77,58,0.00,40.00,9,4,15,0.00
2013-8-2,73.0,65.7,56.0,60.0,57.5,53.0,90,76,57,0.00,40.00,9,4,14,0.00
2013-8-3,72.0,63.4,54.0,60.0,57.0,51.0,92,81,59,0.00,40.00,9,4,14,0.00
2013-8-4,73.0,65.0,56.0,60.0,58.4,53.0,93,80,61,0.00,40.00,10,4,17,0.00
2013-8-5,73.0,62.6,56.0,61.0,57.4,54.0,98,85,59,0.00,40.00,10,4,14,0.00
2013-8-6,72.0,65.3,56.0,60.0,57.4,52.0,91,77,59,0.00,40.00,9,4,16,0.00
2013-8-7,72.0,65.1,55.0,60.0,56.9,52.0,91,76,57,0.00,40.00,8,4,14,0.00
2013-8-8,74.0,62.6,49.0,61.0,55.2,48.0,95,78,55,0.00,40.00,8,5,12,0.00
2013-8-9,71.0,61.9,53.0,59.0,56.1,50.0,95,82,61,0.00,40.00,9,4,14,0.00
2013-8-10,71.0,62.7,53.0,58.0,55.2,50.0,92,78,58,0.00,40.00,9,4,15,0.00
2013-8-11,73.0,63.5,52.0,61.0,56.8,49.0,94,80,57,0.00,40.00,9,4,13,0.00
2013-8-17,77.0,59.5,57.0,62.0,39.4,-99.9,93,66,56,0.00,40.00,9,4,13,0.00
2013-8-18,73.0,65.0,56.0,64.0,59.2,53.0,99,83,63,0.00,40.00,8,4,13,0.00
2013-8-19,74.0,54.1,61.0,63.0,35.1,-99.9,93,83,64,0.00,40.00,9,3,14,0.00
2013-8-20,77.0,62.9,59.0,62.0,52.5,-99.9,95,82,57,0.00,40.00,7,3,14,0.00
2013-8-21,81.0,65.8,55.0,61.0,57.0,53.0,94,76,44,0.00,40.00,8,4,12,0.00
2013-8-22,93.0,71.0,56.0,61.0,52.4,35.0,89,60,13,0.00,40.00,9,4,13,0.00
2013-8-23,79.0,68.9,55.0,62.0,56.8,50.0,89,68,42,0.00,40.00,8,4,12,0.00
2013-8-24,60.0,52.4,57.0,57.0,38.2,-99.9,89,78,87,0.00,40.00,4,3,5,0.00
2013-8-25,81.0,65.6,54.0,62.0,57.2,52.0,95,77,45,0.00,40.00,8,4,13,0.00
2013-8-26,86.0,70.5,63.0,61.0,54.8,51.0,72,59,38,0.00,40.00,8,3,12,0.00
2013-8-27,83.0,71.6,64.0,63.0,60.1,56.0,90,70,42,0.00,40.00,8,3,13,0.00
2013-8-28,86.0,79.0,67.0,59.0,56.3,53.0,74,48,32,0.00,40.00,8,6,13,0.00
2013-9-25,72.0,68.8,63.0,59.0,56.9,55.0,76,66,60,0.00,40.00,11,8,18,0.00
2013-9-26,70.0,64.3,60.0,54.0,51.4,43.0,74,64,43,0.00,40.00,11,7,18,0.00
2013-9-27,75.0,69.0,57.0,51.0,47.0,42.0,58,46,40,0.00,40.00,9,6,14,0.00
2013-9-28,82.0,56.5,47.0,35.0,9.0,-99.9,45,24,17,0.00,40.00,8,6,14,0.00
2013-9-29,82.0,72.8,49.0,43.0,35.0,26.0,46,28,14,0.00,40.00,7,5,10,0.00
2013-9-30,79.0,70.8,47.0,56.0,45.9,29.0,71,44,20,0.00,40.00,6,5,11,0.00
2013-10-1,61.0,61.0,61.0,58.0,58.0,58.0,90,90,90,0.00,40.00,4,4,6,0.00
2013-10-7,79.0,66.6,51.0,54.0,39.2,16.0,65,38,24,0.00,40.00,8,5,13,0.00
2013-10-8,67.0,62.5,50.0,55.0,51.4,44.0,80,67,61,0.00,40.00,9,5,14,0.00
2013-10-9,62.0,58.1,48.0,52.0,49.9,47.0,97,75,61,0.00,40.00,12,6,21,0.00
2013-10-10,65.0,54.8,46.0,53.0,47.8,45.0,97,81,50,0.00,40.00,7,4,12,0.00
2013-10-11,72.0,57.4,43.0,53.0,47.4,42.0,97,73,42,0.00,40.00,8,4,13,0.00
2013-10-12,67.0,48.8,46.0,57.0,35.2,-99.9,97,79,66,0.00,40.00,7,4,11,0.00
2013-10-13,66.0,58.7,48.0,55.0,52.2,47.0,95,80,62,0.00,40.00,8,4,13,0.00
2013-10-17,77.0,73.8,68.0,45.0,42.8,40.0,42,34,27,0.00,40.00,8,5,11,0.00
2013-10-18,75.0,60.3,45.0,47.0,38.3,34.0,64,46,36,0.00,40.00,7,5,10,0.00
2013-10-19,79.0,49.9,45.0,41.0,21.6,-99.9,84,52,22,0.00,40.00,7,5,10,0.00
2013-10-20,70.0,53.2,42.0,55.0,43.7,36.0,78,71,60,0.00,40.00,6,5,10,0.00
2013-10-21,70.0,62.3,51.0,57.0,54.0,50.0,98,77,57,0.00,40.00,8,5,12,0.00
2013-10-22,72.0,59.1,53.0,58.0,55.0,52.0,98,89,53,0.00,40.00,5,4,10,0.00
2013-10-23,64.0,60.7,59.0,57.0,55.0,53.0,91,82,68,0.00,40.00,5,2,8,0.00
2013-11-13,89.0,66.6,51.0,37.0,33.0,28.0,52,32,13,0.00,40.00,7,4,10,0.00
2013-11-14,85.0,68.9,54.0,27.0,24.5,23.0,30,20,11,0.00,40.00,7,4,11,0.00
2013-11-15,63.0,59.6,50.0,56.0,52.2,47.0,91,78,68,0.00,40.00,5,4,11,0.00
2013-11-16,63.0,44.8,49.0,54.0,22.0,-99.9,98,66,47,0.00,40.00,7,2,14,0.00
2013-11-17,65.0,53.4,46.0,51.0,46.8,44.0,94,80,54,0.00,40.00,8,4,14,0.00
2013-11-18,66.0,54.2,43.0,52.0,47.0,42.0,97,79,57,0.00,40.00,7,5,13,0.00
2013-11-19,63.0,58.1,51.0,52.0,50.9,48.0,89,78,62,0.00,40.00,6,4,9,0.00
2013-12-26,82.0,60.3,47.0,11.0,8.0,4.0,23,15,5,0.00,40.00,10,5,17,0.00
2013-12-27,76.0,56.8,41.0,18.0,13.0,10.0,29,20,11,0.00,40.00,7,5,13,0.00
2013-12-28,62.0,41.8,45.0,51.0,4.5,-99.9,73,42,34,0.00,40.00,6,4,9,0.00
2013-12-29,42.0,42.0,42.0,35.0,35.0,35.0,75,75,75,0.00,40.00,2,2,5,0.00
2013-12-30,73.0,57.3,40.0,10.0,9.3,8.0,29,17,8,0.00,40.00,4,3,7,0.00
2013-12-31,62.0,52.0,36.0,49.0,33.4,16.0,75,54,18,0.00,40.00,7,3,10,0.00
2014-1-1,71.0,53.1,36.0,46.0,38.3,33.0,91,62,37,0.00,40.00,5,4,8,0.00
2014-1-2,75.0,49.5,40.0,35.0,30.0,27.0,70,51,23,0.00,40.00,7,5,10,0.00